Gainesville, Kentucky
Current Conditions -  °F | °C
As of 6:53 PM on Wednesday 17 Dec 2014 (Local Time) from KBWG Reporting Station
Clear Clear  
Wind Chill: 31°   Ceiling: Unl
Heat Index: 35°   Visibility: 10mi
Dew Point: 25°   Wind: 5mph
Humidity: 67%   Direction: 330°NNW
Pressure: 30.28"   Gusts: NA
Location:  36.7794°N, 86.196°W
Report Text: KBWG 180053Z AUTO 33004KT 10SM CLR 02/M04 A3028 RMK AO2 SLP258 T00171039
Loading
Personal Weather Stations






























Interactive Weather Map New forecast layout! Learn more

10-Day Weather Forecast

Advertisements
Track Severe Weather on mobile